sensor_id;sensor_type;location;lat;lon;timestamp;P1;durP1;ratioP1;P2;durP2;ratioP2
43933;SDS011;59081;42.706;23.306;2023-01-19T00:02:18;19.35;;;4.82;;
43933;SDS011;59081;42.706;23.306;2023-01-19T00:04:44;8.43;;;2.63;;
43933;SDS011;59081;42.706;23.306;2023-01-19T00:07:13;21.35;;;6.00;;
43933;SDS011;59081;42.706;23.306;2023-01-19T00:09:39;23.35;;;5.68;;
43933;SDS011;59081;42.706;23.306;2023-01-19T00:12:10;18.95;;;2.97;;
43933;SDS011;59081;42.706;23.306;2023-01-19T00:14:38;31.40;;;3.30;;
43933;SDS011;59081;42.706;23.306;2023-01-19T00:17:17;17.08;;;3.92;;
43933;SDS011;59081;42.706;23.306;2023-01-19T00:19:43;13.18;;;2.53;;
43933;SDS011;59081;42.706;23.306;2023-01-19T00:22:08;13.77;;;4.85;;
43933;SDS011;59081;42.706;23.306;2023-01-19T00:24:34;13.52;;;2.92;;
43933;SDS011;59081;42.706;23.306;2023-01-19T00:27:00;25.67;;;5.65;;
43933;SDS011;59081;42.706;23.306;2023-01-19T00:29:31;20.10;;;3.17;;
43933;SDS011;59081;42.706;23.306;2023-01-19T00:32:11;10.95;;;3.10;;
43933;SDS011;59081;42.706;23.306;2023-01-19T00:34:37;15.63;;;3.83;;
43933;SDS011;59081;42.706;23.306;2023-01-19T00:37:07;17.67;;;3.75;;
43933;SDS011;59081;42.706;23.306;2023-01-19T00:39:41;11.30;;;3.20;;
43933;SDS011;59081;42.706;23.306;2023-01-19T00:42:08;25.85;;;4.35;;
43933;SDS011;59081;42.706;23.306;2023-01-19T00:44:57;13.93;;;2.95;;
43933;SDS011;59081;42.706;23.306;2023-01-19T00:47:29;25.35;;;3.88;;
43933;SDS011;59081;42.706;23.306;2023-01-19T00:49:58;38.47;;;3.75;;
43933;SDS011;59081;42.706;23.306;2023-01-19T00:52:35;18.63;;;3.17;;
43933;SDS011;59081;42.706;23.306;2023-01-19T00:55:02;25.73;;;5.10;;
43933;SDS011;59081;42.706;23.306;2023-01-19T00:57:41;30.80;;;4.78;;
43933;SDS011;59081;42.706;23.306;2023-01-19T01:00:13;28.08;;;6.55;;
43933;SDS011;59081;42.706;23.306;2023-01-19T01:02:44;22.15;;;4.65;;
43933;SDS011;59081;42.706;23.306;2023-01-19T01:05:11;36.22;;;4.60;;
43933;SDS011;59081;42.706;23.306;2023-01-19T01:07:40;25.98;;;6.55;;
43933;SDS011;59081;42.706;23.306;2023-01-19T01:10:25;32.05;;;4.63;;
43933;SDS011;59081;42.706;23.306;2023-01-19T01:12:59;18.55;;;3.60;;
43933;SDS011;59081;42.706;23.306;2023-01-19T01:15:27;17.55;;;4.75;;
43933;SDS011;59081;42.706;23.306;2023-01-19T01:17:55;22.63;;;4.00;;
43933;SDS011;59081;42.706;23.306;2023-01-19T01:20:32;17.58;;;4.47;;
43933;SDS011;59081;42.706;23.306;2023-01-19T01:23:01;17.50;;;3.50;;
43933;SDS011;59081;42.706;23.306;2023-01-19T01:25:30;17.08;;;3.72;;
43933;SDS011;59081;42.706;23.306;2023-01-19T01:28:05;14.38;;;3.13;;
43933;SDS011;59081;42.706;23.306;2023-01-19T01:30:36;17.48;;;4.05;;
43933;SDS011;59081;42.706;23.306;2023-01-19T01:33:05;18.88;;;3.58;;
43933;SDS011;59081;42.706;23.306;2023-01-19T01:35:35;24.08;;;3.63;;
43933;SDS011;59081;42.706;23.306;2023-01-19T01:38:12;23.67;;;4.20;;
43933;SDS011;59081;42.706;23.306;2023-01-19T01:40:40;14.75;;;2.60;;
43933;SDS011;59081;42.706;23.306;2023-01-19T01:43:12;7.28;;;1.42;;
43933;SDS011;59081;42.706;23.306;2023-01-19T01:45:40;12.02;;;2.92;;
43933;SDS011;59081;42.706;23.306;2023-01-19T01:48:14;14.57;;;2.47;;
43933;SDS011;59081;42.706;23.306;2023-01-19T01:51:10;11.50;;;2.00;;
43933;SDS011;59081;42.706;23.306;2023-01-19T01:53:48;17.85;;;3.20;;
43933;SDS011;59081;42.706;23.306;2023-01-19T01:56:28;17.40;;;3.75;;
43933;SDS011;59081;42.706;23.306;2023-01-19T01:59:05;11.43;;;2.90;;
43933;SDS011;59081;42.706;23.306;2023-01-19T02:01:37;17.55;;;3.20;;
43933;SDS011;59081;42.706;23.306;2023-01-19T02:04:23;10.45;;;2.85;;
43933;SDS011;59081;42.706;23.306;2023-01-19T02:06:51;19.80;;;4.95;;
43933;SDS011;59081;42.706;23.306;2023-01-19T02:09:36;15.57;;;5.93;;
43933;SDS011;59081;42.706;23.306;2023-01-19T02:12:21;9.23;;;2.70;;
43933;SDS011;59081;42.706;23.306;2023-01-19T02:15:25;19.52;;;3.97;;
43933;SDS011;59081;42.706;23.306;2023-01-19T02:17:51;12.23;;;3.55;;
43933;SDS011;59081;42.706;23.306;2023-01-19T02:20:17;6.72;;;2.25;;
43933;SDS011;59081;42.706;23.306;2023-01-19T02:22:55;12.30;;;3.10;;
43933;SDS011;59081;42.706;23.306;2023-01-19T02:25:27;3.42;;;2.35;;
43933;SDS011;59081;42.706;23.306;2023-01-19T02:27:57;11.05;;;2.03;;
43933;SDS011;59081;42.706;23.306;2023-01-19T02:30:29;9.38;;;1.70;;
43933;SDS011;59081;42.706;23.306;2023-01-19T02:32:58;5.80;;;3.42;;
43933;SDS011;59081;42.706;23.306;2023-01-19T02:35:33;12.27;;;2.58;;
43933;SDS011;59081;42.706;23.306;2023-01-19T02:38:02;9.90;;;2.85;;
43933;SDS011;59081;42.706;23.306;2023-01-19T02:40:34;13.90;;;2.47;;
43933;SDS011;59081;42.706;23.306;2023-01-19T02:43:12;10.35;;;2.40;;
43933;SDS011;59081;42.706;23.306;2023-01-19T02:45:42;13.13;;;3.50;;
43933;SDS011;59081;42.706;23.306;2023-01-19T02:48:10;12.82;;;3.28;;
43933;SDS011;59081;42.706;23.306;2023-01-19T02:50:43;9.45;;;3.20;;
43933;SDS011;59081;42.706;23.306;2023-01-19T02:56:28;11.15;;;2.03;;
43933;SDS011;59081;42.706;23.306;2023-01-19T03:04:21;33.17;;;4.13;;
43933;SDS011;59081;42.706;23.306;2023-01-19T03:06:58;12.40;;;3.25;;
43933;SDS011;59081;42.706;23.306;2023-01-19T03:09:48;16.95;;;3.85;;
43933;SDS011;59081;42.706;23.306;2023-01-19T03:13:03;17.80;;;2.55;;
43933;SDS011;59081;42.706;23.306;2023-01-19T03:15:19;19.95;;;3.35;;
43933;SDS011;59081;42.706;23.306;2023-01-19T03:17:50;28.23;;;3.38;;
43933;SDS011;59081;42.706;23.306;2023-01-19T03:20:27;15.63;;;3.22;;
43933;SDS011;59081;42.706;23.306;2023-01-19T03:23:00;10.68;;;2.90;;
43933;SDS011;59081;42.706;23.306;2023-01-19T03:25:30;18.20;;;4.10;;
43933;SDS011;59081;42.706;23.306;2023-01-19T03:28:02;13.82;;;3.80;;
43933;SDS011;59081;42.706;23.306;2023-01-19T03:30:31;6.60;;;0.98;;
43933;SDS011;59081;42.706;23.306;2023-01-19T03:33:03;18.58;;;3.55;;
43933;SDS011;59081;42.706;23.306;2023-01-19T03:35:40;12.43;;;3.17;;
43933;SDS011;59081;42.706;23.306;2023-01-19T03:38:13;10.70;;;2.00;;
43933;SDS011;59081;42.706;23.306;2023-01-19T03:40:41;24.92;;;3.50;;
43933;SDS011;59081;42.706;23.306;2023-01-19T03:43:08;18.35;;;3.70;;
43933;SDS011;59081;42.706;23.306;2023-01-19T03:45:35;16.08;;;2.50;;
43933;SDS011;59081;42.706;23.306;2023-01-19T03:48:03;12.32;;;2.90;;
43933;SDS011;59081;42.706;23.306;2023-01-19T03:50:33;13.52;;;1.83;;
43933;SDS011;59081;42.706;23.306;2023-01-19T03:53:08;28.42;;;5.20;;
43933;SDS011;59081;42.706;23.306;2023-01-19T03:55:39;13.80;;;4.50;;
43933;SDS011;59081;42.706;23.306;2023-01-19T03:58:10;6.65;;;1.83;;
43933;SDS011;59081;42.706;23.306;2023-01-19T04:00:39;22.75;;;4.40;;
43933;SDS011;59081;42.706;23.306;2023-01-19T04:03:05;20.17;;;2.85;;
43933;SDS011;59081;42.706;23.306;2023-01-19T04:05:40;11.25;;;1.88;;
43933;SDS011;59081;42.706;23.306;2023-01-19T04:08:08;20.63;;;4.25;;
43933;SDS011;59081;42.706;23.306;2023-01-19T04:10:34;23.25;;;5.28;;
43933;SDS011;59081;42.706;23.306;2023-01-19T04:13:04;13.43;;;2.80;;
43933;SDS011;59081;42.706;23.306;2023-01-19T04:15:30;23.48;;;4.32;;
43933;SDS011;59081;42.706;23.306;2023-01-19T04:18:01;28.25;;;4.93;;
43933;SDS011;59081;42.706;23.306;2023-01-19T04:20:31;22.35;;;4.43;;
43933;SDS011;59081;42.706;23.306;2023-01-19T04:22:58;25.85;;;5.07;;
43933;SDS011;59081;42.706;23.306;2023-01-19T04:25:24;33.03;;;5.40;;
43933;SDS011;59081;42.706;23.306;2023-01-19T04:27:51;20.38;;;5.95;;
43933;SDS011;59081;42.706;23.306;2023-01-19T04:30:21;23.30;;;5.20;;
43933;SDS011;59081;42.706;23.306;2023-01-19T04:32:52;32.83;;;4.47;;
43933;SDS011;59081;42.706;23.306;2023-01-19T04:35:22;13.20;;;4.38;;
43933;SDS011;59081;42.706;23.306;2023-01-19T04:37:53;25.27;;;4.65;;
43933;SDS011;59081;42.706;23.306;2023-01-19T04:40:24;25.17;;;3.60;;
43933;SDS011;59081;42.706;23.306;2023-01-19T04:45:24;26.33;;;4.72;;
43933;SDS011;59081;42.706;23.306;2023-01-19T04:47:55;28.33;;;3.55;;
43933;SDS011;59081;42.706;23.306;2023-01-19T04:50:30;34.65;;;7.05;;
43933;SDS011;59081;42.706;23.306;2023-01-19T04:52:56;23.75;;;4.80;;
43933;SDS011;59081;42.706;23.306;2023-01-19T04:55:26;16.33;;;3.65;;
43933;SDS011;59081;42.706;23.306;2023-01-19T04:57:51;22.55;;;3.97;;
43933;SDS011;59081;42.706;23.306;2023-01-19T05:00:20;14.95;;;4.47;;
43933;SDS011;59081;42.706;23.306;2023-01-19T05:02:46;43.50;;;7.00;;
43933;SDS011;59081;42.706;23.306;2023-01-19T05:05:15;35.05;;;5.82;;
43933;SDS011;59081;42.706;23.306;2023-01-19T05:07:49;13.02;;;3.92;;
43933;SDS011;59081;42.706;23.306;2023-01-19T05:10:15;12.02;;;3.92;;
43933;SDS011;59081;42.706;23.306;2023-01-19T05:12:43;6.30;;;3.22;;
43933;SDS011;59081;42.706;23.306;2023-01-19T05:15:12;31.48;;;5.70;;
43933;SDS011;59081;42.706;23.306;2023-01-19T05:17:46;11.85;;;2.50;;
43933;SDS011;59081;42.706;23.306;2023-01-19T05:20:16;16.38;;;3.25;;
43933;SDS011;59081;42.706;23.306;2023-01-19T05:22:47;12.10;;;4.88;;
43933;SDS011;59081;42.706;23.306;2023-01-19T05:25:18;26.23;;;4.80;;
43933;SDS011;59081;42.706;23.306;2023-01-19T05:27:44;23.90;;;4.75;;
43933;SDS011;59081;42.706;23.306;2023-01-19T05:30:19;19.02;;;4.78;;
43933;SDS011;59081;42.706;23.306;2023-01-19T05:32:45;33.90;;;3.72;;
43933;SDS011;59081;42.706;23.306;2023-01-19T05:35:13;21.08;;;4.78;;
43933;SDS011;59081;42.706;23.306;2023-01-19T05:37:49;40.25;;;4.78;;
43933;SDS011;59081;42.706;23.306;2023-01-19T05:40:18;30.70;;;6.65;;
43933;SDS011;59081;42.706;23.306;2023-01-19T05:42:43;33.90;;;4.18;;
43933;SDS011;59081;42.706;23.306;2023-01-19T05:45:11;48.75;;;5.07;;
43933;SDS011;59081;42.706;23.306;2023-01-19T05:47:44;42.03;;;5.60;;
43933;SDS011;59081;42.706;23.306;2023-01-19T05:50:15;24.45;;;4.88;;
43933;SDS011;59081;42.706;23.306;2023-01-19T05:52:49;25.45;;;5.60;;
43933;SDS011;59081;42.706;23.306;2023-01-19T05:55:17;19.48;;;4.95;;
43933;SDS011;59081;42.706;23.306;2023-01-19T05:57:52;15.90;;;4.32;;
43933;SDS011;59081;42.706;23.306;2023-01-19T06:00:20;17.80;;;2.72;;
43933;SDS011;59081;42.706;23.306;2023-01-19T06:05:19;25.73;;;4.90;;
43933;SDS011;59081;42.706;23.306;2023-01-19T06:07:48;28.52;;;6.72;;
43933;SDS011;59081;42.706;23.306;2023-01-19T06:10:16;13.10;;;4.18;;
43933;SDS011;59081;42.706;23.306;2023-01-19T06:12:49;14.75;;;3.72;;
43933;SDS011;59081;42.706;23.306;2023-01-19T06:15:18;15.52;;;3.20;;
43933;SDS011;59081;42.706;23.306;2023-01-19T06:17:49;45.25;;;8.98;;
43933;SDS011;59081;42.706;23.306;2023-01-19T06:20:20;20.30;;;4.57;;
43933;SDS011;59081;42.706;23.306;2023-01-19T06:22:46;20.45;;;4.47;;
43933;SDS011;59081;42.706;23.306;2023-01-19T06:25:14;17.45;;;5.00;;
43933;SDS011;59081;42.706;23.306;2023-01-19T06:27:43;11.57;;;4.35;;
43933;SDS011;59081;42.706;23.306;2023-01-19T06:32:40;33.15;;;7.45;;
43933;SDS011;59081;42.706;23.306;2023-01-19T06:35:08;19.25;;;3.33;;
43933;SDS011;59081;42.706;23.306;2023-01-19T06:37:34;9.27;;;4.80;;
43933;SDS011;59081;42.706;23.306;2023-01-19T06:40:02;21.08;;;4.45;;
43933;SDS011;59081;42.706;23.306;2023-01-19T06:42:34;19.75;;;4.00;;
43933;SDS011;59081;42.706;23.306;2023-01-19T06:45:00;22.52;;;4.38;;
43933;SDS011;59081;42.706;23.306;2023-01-19T06:47:29;24.20;;;7.43;;
43933;SDS011;59081;42.706;23.306;2023-01-19T06:49:55;29.13;;;5.10;;
43933;SDS011;59081;42.706;23.306;2023-01-19T06:52:23;31.85;;;7.63;;
43933;SDS011;59081;42.706;23.306;2023-01-19T06:54:52;30.70;;;4.13;;
43933;SDS011;59081;42.706;23.306;2023-01-19T06:57:21;23.38;;;4.20;;
43933;SDS011;59081;42.706;23.306;2023-01-19T06:59:49;25.42;;;5.88;;
43933;SDS011;59081;42.706;23.306;2023-01-19T07:02:17;28.67;;;4.82;;
43933;SDS011;59081;42.706;23.306;2023-01-19T07:04:46;26.98;;;6.03;;
43933;SDS011;59081;42.706;23.306;2023-01-19T07:07:18;34.70;;;7.10;;
43933;SDS011;59081;42.706;23.306;2023-01-19T07:09:43;20.30;;;4.70;;
43933;SDS011;59081;42.706;23.306;2023-01-19T07:12:15;21.23;;;5.15;;
43933;SDS011;59081;42.706;23.306;2023-01-19T07:14:41;17.60;;;5.10;;
43933;SDS011;59081;42.706;23.306;2023-01-19T07:17:07;34.58;;;7.72;;
43933;SDS011;59081;42.706;23.306;2023-01-19T07:19:35;34.30;;;7.38;;
43933;SDS011;59081;42.706;23.306;2023-01-19T07:22:02;11.30;;;5.28;;
43933;SDS011;59081;42.706;23.306;2023-01-19T07:24:28;30.58;;;5.72;;
43933;SDS011;59081;42.706;23.306;2023-01-19T07:26:57;25.63;;;5.82;;
43933;SDS011;59081;42.706;23.306;2023-01-19T07:29:26;31.65;;;7.03;;
43933;SDS011;59081;42.706;23.306;2023-01-19T07:31:54;31.85;;;6.50;;
43933;SDS011;59081;42.706;23.306;2023-01-19T07:36:51;18.98;;;3.63;;
43933;SDS011;59081;42.706;23.306;2023-01-19T07:39:17;30.58;;;7.18;;
43933;SDS011;59081;42.706;23.306;2023-01-19T07:42:04;50.60;;;8.10;;
43933;SDS011;59081;42.706;23.306;2023-01-19T07:44:31;20.17;;;4.40;;
43933;SDS011;59081;42.706;23.306;2023-01-19T07:46:59;41.50;;;6.93;;
43933;SDS011;59081;42.706;23.306;2023-01-19T07:49:25;29.58;;;5.93;;
43933;SDS011;59081;42.706;23.306;2023-01-19T07:52:01;21.42;;;5.85;;
43933;SDS011;59081;42.706;23.306;2023-01-19T07:54:27;33.85;;;7.25;;
43933;SDS011;59081;42.706;23.306;2023-01-19T07:56:53;26.50;;;5.82;;
43933;SDS011;59081;42.706;23.306;2023-01-19T07:59:24;35.88;;;6.70;;
43933;SDS011;59081;42.706;23.306;2023-01-19T08:01:52;41.35;;;8.35;;
43933;SDS011;59081;42.706;23.306;2023-01-19T08:04:18;39.70;;;6.32;;
43933;SDS011;59081;42.706;23.306;2023-01-19T08:06:48;18.50;;;5.05;;
43933;SDS011;59081;42.706;23.306;2023-01-19T08:09:27;16.98;;;3.72;;
43933;SDS011;59081;42.706;23.306;2023-01-19T08:11:53;28.85;;;5.40;;
43933;SDS011;59081;42.706;23.306;2023-01-19T08:14:19;38.38;;;6.25;;
43933;SDS011;59081;42.706;23.306;2023-01-19T08:16:57;52.25;;;8.30;;
43933;SDS011;59081;42.706;23.306;2023-01-19T08:19:29;30.45;;;4.55;;
43933;SDS011;59081;42.706;23.306;2023-01-19T08:22:00;28.85;;;6.32;;
43933;SDS011;59081;42.706;23.306;2023-01-19T08:24:28;33.92;;;7.38;;
43933;SDS011;59081;42.706;23.306;2023-01-19T08:27:01;28.73;;;4.97;;
43933;SDS011;59081;42.706;23.306;2023-01-19T08:29:32;39.30;;;6.75;;
43933;SDS011;59081;42.706;23.306;2023-01-19T08:31:58;31.35;;;6.38;;
43933;SDS011;59081;42.706;23.306;2023-01-19T08:34:27;24.02;;;5.82;;
43933;SDS011;59081;42.706;23.306;2023-01-19T08:36:59;25.73;;;5.60;;
43933;SDS011;59081;42.706;23.306;2023-01-19T08:39:25;27.90;;;6.35;;
43933;SDS011;59081;42.706;23.306;2023-01-19T08:41:56;22.80;;;5.15;;
43933;SDS011;59081;42.706;23.306;2023-01-19T08:46:50;55.35;;;11.70;;
43933;SDS011;59081;42.706;23.306;2023-01-19T08:49:16;25.52;;;6.00;;
43933;SDS011;59081;42.706;23.306;2023-01-19T08:51:42;20.75;;;6.55;;
43933;SDS011;59081;42.706;23.306;2023-01-19T08:54:11;24.80;;;7.50;;
43933;SDS011;59081;42.706;23.306;2023-01-19T08:56:37;23.60;;;5.45;;
43933;SDS011;59081;42.706;23.306;2023-01-19T08:59:08;45.22;;;7.88;;
43933;SDS011;59081;42.706;23.306;2023-01-19T09:01:46;24.27;;;4.90;;
43933;SDS011;59081;42.706;23.306;2023-01-19T09:04:24;32.10;;;8.93;;
43933;SDS011;59081;42.706;23.306;2023-01-19T09:06:58;40.58;;;6.90;;
43933;SDS011;59081;42.706;23.306;2023-01-19T09:09:28;23.50;;;5.18;;
43933;SDS011;59081;42.706;23.306;2023-01-19T09:11:54;33.45;;;9.20;;
43933;SDS011;59081;42.706;23.306;2023-01-19T09:14:38;43.40;;;9.05;;
43933;SDS011;59081;42.706;23.306;2023-01-19T09:17:10;29.23;;;3.90;;
43933;SDS011;59081;42.706;23.306;2023-01-19T09:19:39;28.23;;;5.50;;
43933;SDS011;59081;42.706;23.306;2023-01-19T09:22:05;23.30;;;3.83;;
43933;SDS011;59081;42.706;23.306;2023-01-19T09:24:33;22.80;;;2.67;;
43933;SDS011;59081;42.706;23.306;2023-01-19T09:27:01;22.48;;;5.70;;
43933;SDS011;59081;42.706;23.306;2023-01-19T09:29:30;26.25;;;5.57;;
43933;SDS011;59081;42.706;23.306;2023-01-19T09:32:01;18.77;;;4.70;;
43933;SDS011;59081;42.706;23.306;2023-01-19T09:34:30;39.55;;;6.25;;
43933;SDS011;59081;42.706;23.306;2023-01-19T09:36:58;21.50;;;5.35;;
43933;SDS011;59081;42.706;23.306;2023-01-19T09:39:27;17.40;;;4.65;;
43933;SDS011;59081;42.706;23.306;2023-01-19T09:41:59;16.55;;;3.92;;
43933;SDS011;59081;42.706;23.306;2023-01-19T09:44:47;19.00;;;4.22;;
43933;SDS011;59081;42.706;23.306;2023-01-19T09:47:19;24.50;;;5.82;;
43933;SDS011;59081;42.706;23.306;2023-01-19T09:50:00;12.48;;;4.93;;
43933;SDS011;59081;42.706;23.306;2023-01-19T09:52:36;7.45;;;2.67;;
43933;SDS011;59081;42.706;23.306;2023-01-19T09:55:16;11.48;;;3.03;;
43933;SDS011;59081;42.706;23.306;2023-01-19T09:57:50;16.77;;;3.65;;
43933;SDS011;59081;42.706;23.306;2023-01-19T10:00:29;18.97;;;4.47;;
43933;SDS011;59081;42.706;23.306;2023-01-19T10:02:58;15.43;;;3.72;;
43933;SDS011;59081;42.706;23.306;2023-01-19T10:05:38;18.33;;;4.00;;
43933;SDS011;59081;42.706;23.306;2023-01-19T10:11:13;9.90;;;3.50;;
43933;SDS011;59081;42.706;23.306;2023-01-19T10:13:58;26.30;;;3.95;;
43933;SDS011;59081;42.706;23.306;2023-01-19T10:16:47;10.55;;;2.72;;
43933;SDS011;59081;42.706;23.306;2023-01-19T10:19:33;16.25;;;3.70;;
43933;SDS011;59081;42.706;23.306;2023-01-19T10:22:25;19.95;;;3.00;;
43933;SDS011;59081;42.706;23.306;2023-01-19T10:25:11;15.85;;;3.10;;
43933;SDS011;59081;42.706;23.306;2023-01-19T10:27:44;6.55;;;2.20;;
43933;SDS011;59081;42.706;23.306;2023-01-19T10:30:32;15.55;;;2.90;;
43933;SDS011;59081;42.706;23.306;2023-01-19T10:33:05;12.30;;;2.40;;
43933;SDS011;59081;42.706;23.306;2023-01-19T10:35:38;12.15;;;2.83;;
43933;SDS011;59081;42.706;23.306;2023-01-19T10:38:06;11.82;;;2.80;;
43933;SDS011;59081;42.706;23.306;2023-01-19T10:40:41;14.75;;;2.92;;
43933;SDS011;59081;42.706;23.306;2023-01-19T10:46:05;19.45;;;4.05;;
43933;SDS011;59081;42.706;23.306;2023-01-19T10:48:39;7.68;;;2.97;;
43933;SDS011;59081;42.706;23.306;2023-01-19T10:51:06;8.02;;;3.20;;
43933;SDS011;59081;42.706;23.306;2023-01-19T10:53:35;16.30;;;2.40;;
43933;SDS011;59081;42.706;23.306;2023-01-19T10:56:12;21.23;;;3.13;;
43933;SDS011;59081;42.706;23.306;2023-01-19T10:58:52;9.60;;;2.42;;
43933;SDS011;59081;42.706;23.306;2023-01-19T11:01:21;9.48;;;1.83;;
43933;SDS011;59081;42.706;23.306;2023-01-19T11:03:48;16.25;;;3.28;;
43933;SDS011;59081;42.706;23.306;2023-01-19T11:06:20;10.23;;;2.67;;
43933;SDS011;59081;42.706;23.306;2023-01-19T11:09:08;16.20;;;4.45;;
43933;SDS011;59081;42.706;23.306;2023-01-19T11:11:45;9.30;;;2.92;;
43933;SDS011;59081;42.706;23.306;2023-01-19T11:14:13;19.70;;;2.67;;
43933;SDS011;59081;42.706;23.306;2023-01-19T11:16:54;10.23;;;1.75;;
43933;SDS011;59081;42.706;23.306;2023-01-19T11:19:26;20.75;;;2.97;;
43933;SDS011;59081;42.706;23.306;2023-01-19T11:22:09;14.18;;;2.83;;
43933;SDS011;59081;42.706;23.306;2023-01-19T11:24:48;8.95;;;1.60;;
43933;SDS011;59081;42.706;23.306;2023-01-19T11:27:24;11.68;;;2.35;;
43933;SDS011;59081;42.706;23.306;2023-01-19T11:30:06;15.05;;;3.00;;
43933;SDS011;59081;42.706;23.306;2023-01-19T11:32:46;18.80;;;2.25;;
43933;SDS011;59081;42.706;23.306;2023-01-19T11:35:29;20.42;;;2.80;;
43933;SDS011;59081;42.706;23.306;2023-01-19T11:38:17;6.70;;;2.47;;
43933;SDS011;59081;42.706;23.306;2023-01-19T11:40:54;15.75;;;3.03;;
43933;SDS011;59081;42.706;23.306;2023-01-19T11:43:30;19.45;;;4.80;;
43933;SDS011;59081;42.706;23.306;2023-01-19T11:46:10;9.68;;;1.98;;
43933;SDS011;59081;42.706;23.306;2023-01-19T11:48:44;8.27;;;2.95;;
43933;SDS011;59081;42.706;23.306;2023-01-19T11:51:34;19.30;;;4.75;;
43933;SDS011;59081;42.706;23.306;2023-01-19T11:54:19;14.35;;;3.88;;
43933;SDS011;59081;42.706;23.306;2023-01-19T11:56:53;12.95;;;2.20;;
43933;SDS011;59081;42.706;23.306;2023-01-19T11:59:25;8.32;;;2.75;;
43933;SDS011;59081;42.706;23.306;2023-01-19T12:01:53;8.40;;;3.30;;
43933;SDS011;59081;42.706;23.306;2023-01-19T12:04:37;12.88;;;3.40;;
43933;SDS011;59081;42.706;23.306;2023-01-19T12:07:10;5.50;;;1.25;;
43933;SDS011;59081;42.706;23.306;2023-01-19T12:09:47;6.95;;;2.17;;
43933;SDS011;59081;42.706;23.306;2023-01-19T12:12:51;10.95;;;2.40;;
43933;SDS011;59081;42.706;23.306;2023-01-19T12:15:25;16.90;;;2.97;;
43933;SDS011;59081;42.706;23.306;2023-01-19T12:18:05;8.60;;;2.22;;
43933;SDS011;59081;42.706;23.306;2023-01-19T12:20:46;5.80;;;1.63;;
43933;SDS011;59081;42.706;23.306;2023-01-19T12:28:22;5.47;;;1.30;;
43933;SDS011;59081;42.706;23.306;2023-01-19T12:30:54;7.53;;;1.98;;
43933;SDS011;59081;42.706;23.306;2023-01-19T12:35:58;10.77;;;1.88;;
43933;SDS011;59081;42.706;23.306;2023-01-19T12:38:53;10.93;;;2.33;;
43933;SDS011;59081;42.706;23.306;2023-01-19T12:46:59;19.13;;;2.88;;
43933;SDS011;59081;42.706;23.306;2023-01-19T12:49:50;7.28;;;1.90;;
43933;SDS011;59081;42.706;23.306;2023-01-19T12:52:35;9.27;;;1.60;;
43933;SDS011;59081;42.706;23.306;2023-01-19T12:58:32;4.20;;;1.92;;
43933;SDS011;59081;42.706;23.306;2023-01-19T13:00:47;3.25;;;1.08;;
43933;SDS011;59081;42.706;23.306;2023-01-19T13:08:18;5.85;;;1.98;;
43933;SDS011;59081;42.706;23.306;2023-01-19T13:11:14;4.20;;;1.80;;
43933;SDS011;59081;42.706;23.306;2023-01-19T13:21:29;6.38;;;1.65;;
43933;SDS011;59081;42.706;23.306;2023-01-19T13:24:10;5.07;;;1.92;;
43933;SDS011;59081;42.706;23.306;2023-01-19T13:29:35;14.52;;;2.67;;
43933;SDS011;59081;42.706;23.306;2023-01-19T13:32:13;5.43;;;2.17;;
43933;SDS011;59081;42.706;23.306;2023-01-19T13:34:53;8.02;;;1.85;;
43933;SDS011;59081;42.706;23.306;2023-01-19T13:37:34;3.28;;;1.50;;
43933;SDS011;59081;42.706;23.306;2023-01-19T13:40:06;4.43;;;1.58;;
43933;SDS011;59081;42.706;23.306;2023-01-19T13:42:43;5.53;;;1.80;;
43933;SDS011;59081;42.706;23.306;2023-01-19T13:45:32;6.05;;;1.80;;
43933;SDS011;59081;42.706;23.306;2023-01-19T13:48:10;5.00;;;1.85;;
43933;SDS011;59081;42.706;23.306;2023-01-19T13:50:41;6.97;;;1.60;;
43933;SDS011;59081;42.706;23.306;2023-01-19T13:53:16;7.50;;;2.42;;
43933;SDS011;59081;42.706;23.306;2023-01-19T13:56:07;5.50;;;1.20;;
43933;SDS011;59081;42.706;23.306;2023-01-19T14:01:50;5.57;;;1.30;;
43933;SDS011;59081;42.706;23.306;2023-01-19T14:04:33;2.38;;;1.42;;
43933;SDS011;59081;42.706;23.306;2023-01-19T14:07:00;4.10;;;1.48;;
43933;SDS011;59081;42.706;23.306;2023-01-19T14:09:46;13.43;;;1.90;;
43933;SDS011;59081;42.706;23.306;2023-01-19T14:12:33;4.75;;;1.77;;
43933;SDS011;59081;42.706;23.306;2023-01-19T14:15:04;2.67;;;1.10;;
43933;SDS011;59081;42.706;23.306;2023-01-19T14:17:38;4.53;;;1.52;;
43933;SDS011;59081;42.706;23.306;2023-01-19T14:20:26;7.63;;;2.83;;
43933;SDS011;59081;42.706;23.306;2023-01-19T14:23:03;5.45;;;2.78;;
43933;SDS011;59081;42.706;23.306;2023-01-19T14:25:54;5.43;;;1.58;;
43933;SDS011;59081;42.706;23.306;2023-01-19T14:28:32;4.88;;;1.65;;
43933;SDS011;59081;42.706;23.306;2023-01-19T14:31:21;4.05;;;0.98;;
43933;SDS011;59081;42.706;23.306;2023-01-19T14:33:52;3.97;;;1.67;;
43933;SDS011;59081;42.706;23.306;2023-01-19T14:36:40;1.77;;;1.05;;
43933;SDS011;59081;42.706;23.306;2023-01-19T14:39:12;5.18;;;1.60;;
43933;SDS011;59081;42.706;23.306;2023-01-19T14:41:45;3.85;;;1.13;;
43933;SDS011;59081;42.706;23.306;2023-01-19T14:44:31;5.45;;;1.50;;
43933;SDS011;59081;42.706;23.306;2023-01-19T14:47:01;5.10;;;2.27;;
43933;SDS011;59081;42.706;23.306;2023-01-19T14:49:37;5.18;;;1.60;;
43933;SDS011;59081;42.706;23.306;2023-01-19T14:52:18;9.45;;;1.92;;
43933;SDS011;59081;42.706;23.306;2023-01-19T14:54:46;6.25;;;1.85;;
43933;SDS011;59081;42.706;23.306;2023-01-19T14:57:20;9.40;;;1.50;;
43933;SDS011;59081;42.706;23.306;2023-01-19T14:59:53;5.80;;;1.52;;
43933;SDS011;59081;42.706;23.306;2023-01-19T15:02:20;12.30;;;1.63;;
43933;SDS011;59081;42.706;23.306;2023-01-19T15:04:58;6.03;;;2.25;;
43933;SDS011;59081;42.706;23.306;2023-01-19T15:09:52;5.13;;;1.83;;
43933;SDS011;59081;42.706;23.306;2023-01-19T15:12:23;4.20;;;0.90;;
43933;SDS011;59081;42.706;23.306;2023-01-19T15:14:52;14.07;;;2.13;;
43933;SDS011;59081;42.706;23.306;2023-01-19T15:17:27;12.57;;;2.15;;
43933;SDS011;59081;42.706;23.306;2023-01-19T15:19:53;6.68;;;1.30;;
43933;SDS011;59081;42.706;23.306;2023-01-19T15:22:24;5.63;;;1.48;;
43933;SDS011;59081;42.706;23.306;2023-01-19T15:24:54;4.50;;;1.55;;
43933;SDS011;59081;42.706;23.306;2023-01-19T15:27:25;16.00;;;2.33;;
43933;SDS011;59081;42.706;23.306;2023-01-19T15:29:56;8.50;;;1.63;;
43933;SDS011;59081;42.706;23.306;2023-01-19T15:32:25;2.53;;;1.58;;
43933;SDS011;59081;42.706;23.306;2023-01-19T15:34:54;9.88;;;1.27;;
43933;SDS011;59081;42.706;23.306;2023-01-19T15:37:20;4.53;;;1.40;;
43933;SDS011;59081;42.706;23.306;2023-01-19T15:39:55;1.23;;;0.80;;
43933;SDS011;59081;42.706;23.306;2023-01-19T15:42:21;6.80;;;1.35;;
43933;SDS011;59081;42.706;23.306;2023-01-19T15:45:29;4.90;;;1.77;;
43933;SDS011;59081;42.706;23.306;2023-01-19T15:48:05;10.95;;;1.70;;
43933;SDS011;59081;42.706;23.306;2023-01-19T15:50:35;7.03;;;2.30;;
43933;SDS011;59081;42.706;23.306;2023-01-19T15:53:03;6.80;;;1.25;;
43933;SDS011;59081;42.706;23.306;2023-01-19T15:55:30;7.30;;;1.40;;
43933;SDS011;59081;42.706;23.306;2023-01-19T15:58:01;4.72;;;2.17;;
43933;SDS011;59081;42.706;23.306;2023-01-19T16:02:53;6.40;;;2.67;;
43933;SDS011;59081;42.706;23.306;2023-01-19T16:05:30;6.20;;;2.33;;
43933;SDS011;59081;42.706;23.306;2023-01-19T16:08:00;5.18;;;1.70;;